CheckWX is a tool to help pilots better visualize weather data.  It is not intended as a substitute for an official pre-flight weather briefing.

00:52:58 UTC

LQSA METAR
Sarajevo International Airport
Sarajevo, Bosnia and Herzegovina
Current

53 mins ago

LQSA 130000Z VRB02KT 2500 BR SCT005 BKN015 00/00 Q1000
Observed
Dec-13 @ 00:00 UTC
Wind
  • Variable at 2 KTS
Visibility
2,500 meters
Flight Rules
IFR
Conditions
Mist
Cloud Levels
  • Scattered at 500' AGL
  • Broken at 1,500' AGL
Temperature
C / 32°F
Dewpoint
C / 32°F
Humidity
100%
Altimeter
29.53" Hg
Pressure
999.92 hPa
Previous

2 hours ago

LQSA 122300Z VRB02KT 2500 BR SCT005 BKN015 00/00 Q1000
Observed
Dec-12 @ 23:00 UTC
Wind
  • Variable at 2 KTS
Visibility
2,500 meters
Flight Rules
IFR
Conditions
Mist
Cloud Levels
  • Scattered at 500' AGL
  • Broken at 1,500' AGL
Temperature
C / 32°F
Dewpoint
C / 32°F
Humidity
100%
Altimeter
29.53" Hg
Pressure
999.92 hPa
Previous

3 hours ago

LQSA 122200Z VRB02KT 2500 BR SCT005 BKN015 00/00 Q1001
Observed
Dec-12 @ 22:00 UTC
Wind
  • Variable at 2 KTS
Visibility
2,500 meters
Flight Rules
IFR
Conditions
Mist
Cloud Levels
  • Scattered at 500' AGL
  • Broken at 1,500' AGL
Temperature
C / 32°F
Dewpoint
C / 32°F
Humidity
100%
Altimeter
29.56" Hg
Pressure
1000.92 hPa